sensor_id;sensor_type;location;lat;lon;timestamp;pressure;altitude;pressure_sealevel;temperature
15626;BMP180;7912;51.376;6.126;2024-03-29T00:02:12;98941.00;;;12.20
15626;BMP180;7912;51.376;6.126;2024-03-29T00:04:39;98941.00;;;12.30
15626;BMP180;7912;51.376;6.126;2024-03-29T00:07:05;98946.00;;;12.30
15626;BMP180;7912;51.376;6.126;2024-03-29T00:09:31;98935.00;;;12.30
15626;BMP180;7912;51.376;6.126;2024-03-29T00:11:57;98933.00;;;12.20
15626;BMP180;7912;51.376;6.126;2024-03-29T00:14:23;98933.00;;;12.30
15626;BMP180;7912;51.376;6.126;2024-03-29T00:16:49;98918.00;;;12.30
15626;BMP180;7912;51.376;6.126;2024-03-29T00:19:19;98931.00;;;12.30
15626;BMP180;7912;51.376;6.126;2024-03-29T00:22:04;98929.00;;;12.30
15626;BMP180;7912;51.376;6.126;2024-03-29T00:24:30;98929.00;;;12.30
15626;BMP180;7912;51.376;6.126;2024-03-29T00:26:56;98921.00;;;12.30
15626;BMP180;7912;51.376;6.126;2024-03-29T00:29:23;98928.00;;;12.30
15626;BMP180;7912;51.376;6.126;2024-03-29T00:31:49;98934.00;;;12.20
15626;BMP180;7912;51.376;6.126;2024-03-29T00:34:15;98921.00;;;12.20
15626;BMP180;7912;51.376;6.126;2024-03-29T00:36:41;98943.00;;;12.20
15626;BMP180;7912;51.376;6.126;2024-03-29T00:39:07;98947.00;;;12.30
15626;BMP180;7912;51.376;6.126;2024-03-29T00:41:37;98951.00;;;12.20
15626;BMP180;7912;51.376;6.126;2024-03-29T00:44:03;98943.00;;;12.20
15626;BMP180;7912;51.376;6.126;2024-03-29T00:46:29;98960.00;;;12.30
15626;BMP180;7912;51.376;6.126;2024-03-29T00:48:55;98954.00;;;12.30
15626;BMP180;7912;51.376;6.126;2024-03-29T00:51:21;98943.00;;;12.30
15626;BMP180;7912;51.376;6.126;2024-03-29T00:53:48;98951.00;;;12.30
15626;BMP180;7912;51.376;6.126;2024-03-29T00:56:15;98958.00;;;12.30
15626;BMP180;7912;51.376;6.126;2024-03-29T00:58:41;98957.00;;;12.30
15626;BMP180;7912;51.376;6.126;2024-03-29T01:01:07;98959.00;;;12.30
15626;BMP180;7912;51.376;6.126;2024-03-29T01:03:34;98956.00;;;12.30
15626;BMP180;7912;51.376;6.126;2024-03-29T01:06:00;98960.00;;;12.40
15626;BMP180;7912;51.376;6.126;2024-03-29T01:08:26;98967.00;;;12.40
15626;BMP180;7912;51.376;6.126;2024-03-29T01:14:41;98971.00;;;12.40
15626;BMP180;7912;51.376;6.126;2024-03-29T01:17:07;98964.00;;;12.40
15626;BMP180;7912;51.376;6.126;2024-03-29T01:19:33;98958.00;;;12.40
15626;BMP180;7912;51.376;6.126;2024-03-29T01:21:59;98960.00;;;12.40
15626;BMP180;7912;51.376;6.126;2024-03-29T01:24:25;98945.00;;;12.50
15626;BMP180;7912;51.376;6.126;2024-03-29T01:26:51;98945.00;;;12.50
15626;BMP180;7912;51.376;6.126;2024-03-29T01:29:18;98947.00;;;12.60
15626;BMP180;7912;51.376;6.126;2024-03-29T01:31:44;98937.00;;;12.60
15626;BMP180;7912;51.376;6.126;2024-03-29T01:34:10;98935.00;;;12.60
15626;BMP180;7912;51.376;6.126;2024-03-29T01:36:36;98935.00;;;12.60
15626;BMP180;7912;51.376;6.126;2024-03-29T01:39:02;98933.00;;;12.60
15626;BMP180;7912;51.376;6.126;2024-03-29T01:41:29;98937.00;;;12.60
15626;BMP180;7912;51.376;6.126;2024-03-29T01:43:56;98928.00;;;12.60
15626;BMP180;7912;51.376;6.126;2024-03-29T01:46:26;98928.00;;;12.70
15626;BMP180;7912;51.376;6.126;2024-03-29T01:48:53;98920.00;;;12.70
15626;BMP180;7912;51.376;6.126;2024-03-29T01:51:21;98922.00;;;12.60
15626;BMP180;7912;51.376;6.126;2024-03-29T01:53:51;98925.00;;;12.60
15626;BMP180;7912;51.376;6.126;2024-03-29T01:56:22;98908.00;;;12.70
15626;BMP180;7912;51.376;6.126;2024-03-29T01:58:52;98899.00;;;12.70
15626;BMP180;7912;51.376;6.126;2024-03-29T02:01:20;98885.00;;;12.70
15626;BMP180;7912;51.376;6.126;2024-03-29T02:03:47;98883.00;;;12.70
15626;BMP180;7912;51.376;6.126;2024-03-29T02:06:14;98885.00;;;12.70
15626;BMP180;7912;51.376;6.126;2024-03-29T02:08:40;98883.00;;;12.70
15626;BMP180;7912;51.376;6.126;2024-03-29T02:11:06;98880.00;;;12.70
15626;BMP180;7912;51.376;6.126;2024-03-29T02:13:32;98877.00;;;12.70
15626;BMP180;7912;51.376;6.126;2024-03-29T02:15:59;98887.00;;;12.70
15626;BMP180;7912;51.376;6.126;2024-03-29T02:18:25;98892.00;;;12.70
15626;BMP180;7912;51.376;6.126;2024-03-29T02:20:52;98894.00;;;12.70
15626;BMP180;7912;51.376;6.126;2024-03-29T02:23:26;98912.00;;;12.70
15626;BMP180;7912;51.376;6.126;2024-03-29T02:25:52;98911.00;;;12.70
15626;BMP180;7912;51.376;6.126;2024-03-29T02:28:20;98907.00;;;12.80
15626;BMP180;7912;51.376;6.126;2024-03-29T02:30:49;98907.00;;;12.70
15626;BMP180;7912;51.376;6.126;2024-03-29T02:33:15;98911.00;;;12.80
15626;BMP180;7912;51.376;6.126;2024-03-29T02:35:41;98908.00;;;12.80
15626;BMP180;7912;51.376;6.126;2024-03-29T02:38:07;98909.00;;;12.80
15626;BMP180;7912;51.376;6.126;2024-03-29T02:40:34;98926.00;;;12.80
15626;BMP180;7912;51.376;6.126;2024-03-29T02:43:00;98932.00;;;12.80
15626;BMP180;7912;51.376;6.126;2024-03-29T02:45:26;98922.00;;;12.80
15626;BMP180;7912;51.376;6.126;2024-03-29T02:47:52;98949.00;;;12.80
15626;BMP180;7912;51.376;6.126;2024-03-29T02:50:18;98938.00;;;12.70
15626;BMP180;7912;51.376;6.126;2024-03-29T02:52:45;98953.00;;;12.70
15626;BMP180;7912;51.376;6.126;2024-03-29T02:55:11;98924.00;;;12.70
15626;BMP180;7912;51.376;6.126;2024-03-29T02:57:38;98933.00;;;12.70
15626;BMP180;7912;51.376;6.126;2024-03-29T03:00:06;98925.00;;;12.70
15626;BMP180;7912;51.376;6.126;2024-03-29T03:02:32;98928.00;;;12.70
15626;BMP180;7912;51.376;6.126;2024-03-29T03:04:58;98921.00;;;12.70
15626;BMP180;7912;51.376;6.126;2024-03-29T03:07:28;98919.00;;;12.70
15626;BMP180;7912;51.376;6.126;2024-03-29T03:10:12;98923.00;;;12.60
15626;BMP180;7912;51.376;6.126;2024-03-29T03:12:57;98916.00;;;12.60
15626;BMP180;7912;51.376;6.126;2024-03-29T03:15:23;98928.00;;;12.60
15626;BMP180;7912;51.376;6.126;2024-03-29T03:17:49;98924.00;;;12.60
15626;BMP180;7912;51.376;6.126;2024-03-29T03:20:15;98922.00;;;12.60
15626;BMP180;7912;51.376;6.126;2024-03-29T03:22:42;98935.00;;;12.60
15626;BMP180;7912;51.376;6.126;2024-03-29T03:25:08;98912.00;;;12.60
15626;BMP180;7912;51.376;6.126;2024-03-29T03:27:38;98929.00;;;12.60
15626;BMP180;7912;51.376;6.126;2024-03-29T03:30:05;98948.00;;;12.60
15626;BMP180;7912;51.376;6.126;2024-03-29T03:32:31;98922.00;;;12.50
15626;BMP180;7912;51.376;6.126;2024-03-29T03:34:57;98927.00;;;12.50
15626;BMP180;7912;51.376;6.126;2024-03-29T03:37:23;98916.00;;;12.50
15626;BMP180;7912;51.376;6.126;2024-03-29T03:39:49;98920.00;;;12.40
15626;BMP180;7912;51.376;6.126;2024-03-29T03:42:15;98919.00;;;12.40
15626;BMP180;7912;51.376;6.126;2024-03-29T03:44:42;98925.00;;;12.40
15626;BMP180;7912;51.376;6.126;2024-03-29T03:47:08;98928.00;;;12.30
15626;BMP180;7912;51.376;6.126;2024-03-29T03:49:34;98923.00;;;12.30
15626;BMP180;7912;51.376;6.126;2024-03-29T03:52:00;98929.00;;;12.30
15626;BMP180;7912;51.376;6.126;2024-03-29T03:54:26;98924.00;;;12.30
15626;BMP180;7912;51.376;6.126;2024-03-29T03:56:53;98926.00;;;12.30
15626;BMP180;7912;51.376;6.126;2024-03-29T03:59:19;98926.00;;;12.20
15626;BMP180;7912;51.376;6.126;2024-03-29T04:01:45;98939.00;;;12.20
15626;BMP180;7912;51.376;6.126;2024-03-29T04:04:11;98921.00;;;12.20
15626;BMP180;7912;51.376;6.126;2024-03-29T04:06:37;98916.00;;;12.20
15626;BMP180;7912;51.376;6.126;2024-03-29T04:09:03;98921.00;;;12.20
15626;BMP180;7912;51.376;6.126;2024-03-29T04:11:30;98924.00;;;12.20
15626;BMP180;7912;51.376;6.126;2024-03-29T04:13:56;98911.00;;;12.20
15626;BMP180;7912;51.376;6.126;2024-03-29T04:16:22;98916.00;;;12.10
15626;BMP180;7912;51.376;6.126;2024-03-29T04:18:48;98931.00;;;12.10
15626;BMP180;7912;51.376;6.126;2024-03-29T04:21:14;98942.00;;;12.10
15626;BMP180;7912;51.376;6.126;2024-03-29T04:23:41;98936.00;;;12.10
15626;BMP180;7912;51.376;6.126;2024-03-29T04:26:07;98946.00;;;12.10
15626;BMP180;7912;51.376;6.126;2024-03-29T04:28:33;98922.00;;;12.10
15626;BMP180;7912;51.376;6.126;2024-03-29T04:31:00;98930.00;;;12.10
15626;BMP180;7912;51.376;6.126;2024-03-29T04:33:27;98933.00;;;12.10
15626;BMP180;7912;51.376;6.126;2024-03-29T04:35:59;98933.00;;;12.10
15626;BMP180;7912;51.376;6.126;2024-03-29T04:38:29;98929.00;;;12.10
15626;BMP180;7912;51.376;6.126;2024-03-29T04:40:57;98929.00;;;12.10
15626;BMP180;7912;51.376;6.126;2024-03-29T04:43:28;98930.00;;;12.10
15626;BMP180;7912;51.376;6.126;2024-03-29T04:46:14;98947.00;;;12.10
15626;BMP180;7912;51.376;6.126;2024-03-29T04:48:42;98933.00;;;12.10
15626;BMP180;7912;51.376;6.126;2024-03-29T04:51:09;98936.00;;;12.10
15626;BMP180;7912;51.376;6.126;2024-03-29T04:53:36;98927.00;;;12.10
15626;BMP180;7912;51.376;6.126;2024-03-29T04:56:04;98920.00;;;12.10
15626;BMP180;7912;51.376;6.126;2024-03-29T04:58:30;98905.00;;;12.00
15626;BMP180;7912;51.376;6.126;2024-03-29T05:00:56;98914.00;;;12.00
15626;BMP180;7912;51.376;6.126;2024-03-29T05:03:23;98918.00;;;12.00
15626;BMP180;7912;51.376;6.126;2024-03-29T05:05:50;98923.00;;;12.00
15626;BMP180;7912;51.376;6.126;2024-03-29T05:08:17;98927.00;;;12.00
15626;BMP180;7912;51.376;6.126;2024-03-29T05:10:46;98936.00;;;12.00
15626;BMP180;7912;51.376;6.126;2024-03-29T05:13:12;98922.00;;;12.00
15626;BMP180;7912;51.376;6.126;2024-03-29T05:15:39;98936.00;;;12.00
15626;BMP180;7912;51.376;6.126;2024-03-29T05:18:05;98921.00;;;12.00
15626;BMP180;7912;51.376;6.126;2024-03-29T05:20:31;98938.00;;;12.00
15626;BMP180;7912;51.376;6.126;2024-03-29T05:22:59;98929.00;;;12.00
15626;BMP180;7912;51.376;6.126;2024-03-29T05:25:26;98925.00;;;12.00
15626;BMP180;7912;51.376;6.126;2024-03-29T05:27:52;98934.00;;;11.90
15626;BMP180;7912;51.376;6.126;2024-03-29T05:30:19;98940.00;;;11.90
15626;BMP180;7912;51.376;6.126;2024-03-29T05:32:45;98940.00;;;11.90
15626;BMP180;7912;51.376;6.126;2024-03-29T05:35:11;98929.00;;;11.90
15626;BMP180;7912;51.376;6.126;2024-03-29T05:37:39;98916.00;;;11.80
15626;BMP180;7912;51.376;6.126;2024-03-29T05:40:07;98923.00;;;11.90
15626;BMP180;7912;51.376;6.126;2024-03-29T05:42:34;98921.00;;;11.80
15626;BMP180;7912;51.376;6.126;2024-03-29T05:45:03;98920.00;;;11.80
15626;BMP180;7912;51.376;6.126;2024-03-29T05:47:30;98926.00;;;11.80
15626;BMP180;7912;51.376;6.126;2024-03-29T05:49:56;98916.00;;;11.80
15626;BMP180;7912;51.376;6.126;2024-03-29T05:52:22;98898.00;;;11.80
15626;BMP180;7912;51.376;6.126;2024-03-29T05:54:49;98919.00;;;11.80
15626;BMP180;7912;51.376;6.126;2024-03-29T05:57:16;98916.00;;;11.90
15626;BMP180;7912;51.376;6.126;2024-03-29T05:59:42;98913.00;;;11.90
15626;BMP180;7912;51.376;6.126;2024-03-29T06:02:08;98913.00;;;11.90
15626;BMP180;7912;51.376;6.126;2024-03-29T06:04:35;98924.00;;;11.90
15626;BMP180;7912;51.376;6.126;2024-03-29T06:07:04;98918.00;;;12.00
15626;BMP180;7912;51.376;6.126;2024-03-29T06:09:31;98919.00;;;12.00
15626;BMP180;7912;51.376;6.126;2024-03-29T06:11:59;98932.00;;;12.00
15626;BMP180;7912;51.376;6.126;2024-03-29T06:14:26;98934.00;;;12.00
15626;BMP180;7912;51.376;6.126;2024-03-29T06:17:11;98932.00;;;12.10
15626;BMP180;7912;51.376;6.126;2024-03-29T06:19:54;98925.00;;;12.10
15626;BMP180;7912;51.376;6.126;2024-03-29T06:22:23;98935.00;;;12.10
15626;BMP180;7912;51.376;6.126;2024-03-29T06:24:51;98935.00;;;12.10
15626;BMP180;7912;51.376;6.126;2024-03-29T06:27:21;98926.00;;;12.10
15626;BMP180;7912;51.376;6.126;2024-03-29T06:29:49;98920.00;;;12.20
15626;BMP180;7912;51.376;6.126;2024-03-29T06:32:16;98910.00;;;12.20
15626;BMP180;7912;51.376;6.126;2024-03-29T06:34:47;98893.00;;;12.20
15626;BMP180;7912;51.376;6.126;2024-03-29T06:37:14;98891.00;;;12.20
15626;BMP180;7912;51.376;6.126;2024-03-29T06:39:40;98882.00;;;12.30
15626;BMP180;7912;51.376;6.126;2024-03-29T06:42:08;98899.00;;;12.30
15626;BMP180;7912;51.376;6.126;2024-03-29T06:44:34;98890.00;;;12.30
15626;BMP180;7912;51.376;6.126;2024-03-29T06:47:01;98879.00;;;12.40
15626;BMP180;7912;51.376;6.126;2024-03-29T06:49:27;98879.00;;;12.40
15626;BMP180;7912;51.376;6.126;2024-03-29T06:51:53;98886.00;;;12.50
15626;BMP180;7912;51.376;6.126;2024-03-29T06:54:22;98872.00;;;12.50
15626;BMP180;7912;51.376;6.126;2024-03-29T06:56:53;98876.00;;;12.50
15626;BMP180;7912;51.376;6.126;2024-03-29T06:59:20;98874.00;;;12.60
15626;BMP180;7912;51.376;6.126;2024-03-29T07:01:46;98863.00;;;12.60
15626;BMP180;7912;51.376;6.126;2024-03-29T07:04:23;98869.00;;;12.70
15626;BMP180;7912;51.376;6.126;2024-03-29T07:06:51;98886.00;;;12.80
15626;BMP180;7912;51.376;6.126;2024-03-29T07:09:19;98878.00;;;12.90
15626;BMP180;7912;51.376;6.126;2024-03-29T07:11:51;98877.00;;;13.10
15626;BMP180;7912;51.376;6.126;2024-03-29T07:14:19;98885.00;;;13.20
15626;BMP180;7912;51.376;6.126;2024-03-29T07:16:46;98882.00;;;13.30
15626;BMP180;7912;51.376;6.126;2024-03-29T07:19:13;98875.00;;;13.40
15626;BMP180;7912;51.376;6.126;2024-03-29T07:21:43;98867.00;;;13.50
15626;BMP180;7912;51.376;6.126;2024-03-29T07:24:09;98878.00;;;13.60
15626;BMP180;7912;51.376;6.126;2024-03-29T07:26:36;98878.00;;;13.70
15626;BMP180;7912;51.376;6.126;2024-03-29T07:29:40;98913.00;;;13.70
15626;BMP180;7912;51.376;6.126;2024-03-29T07:32:14;98904.00;;;13.70
15626;BMP180;7912;51.376;6.126;2024-03-29T07:34:43;98909.00;;;13.80
15626;BMP180;7912;51.376;6.126;2024-03-29T07:37:09;98918.00;;;13.90
15626;BMP180;7912;51.376;6.126;2024-03-29T07:39:41;98923.00;;;13.90
15626;BMP180;7912;51.376;6.126;2024-03-29T07:42:08;98932.00;;;14.00
15626;BMP180;7912;51.376;6.126;2024-03-29T07:44:35;98937.00;;;14.10
15626;BMP180;7912;51.376;6.126;2024-03-29T07:47:01;98925.00;;;14.10
15626;BMP180;7912;51.376;6.126;2024-03-29T07:49:27;98916.00;;;14.10
15626;BMP180;7912;51.376;6.126;2024-03-29T07:51:53;98920.00;;;14.20
15626;BMP180;7912;51.376;6.126;2024-03-29T07:54:19;98912.00;;;14.30
15626;BMP180;7912;51.376;6.126;2024-03-29T07:56:46;98917.00;;;14.30
15626;BMP180;7912;51.376;6.126;2024-03-29T07:59:12;98916.00;;;14.50
15626;BMP180;7912;51.376;6.126;2024-03-29T08:01:39;98920.00;;;14.60
15626;BMP180;7912;51.376;6.126;2024-03-29T08:04:07;98921.00;;;14.80
15626;BMP180;7912;51.376;6.126;2024-03-29T08:06:34;98912.00;;;15.00
15626;BMP180;7912;51.376;6.126;2024-03-29T08:09:00;98902.00;;;15.10
15626;BMP180;7912;51.376;6.126;2024-03-29T08:11:26;98915.00;;;15.20
15626;BMP180;7912;51.376;6.126;2024-03-29T08:14:04;98906.00;;;15.40
15626;BMP180;7912;51.376;6.126;2024-03-29T08:16:30;98904.00;;;15.50
15626;BMP180;7912;51.376;6.126;2024-03-29T08:18:56;98889.00;;;15.60
15626;BMP180;7912;51.376;6.126;2024-03-29T08:21:23;98898.00;;;15.80
15626;BMP180;7912;51.376;6.126;2024-03-29T08:23:53;98907.00;;;15.80
15626;BMP180;7912;51.376;6.126;2024-03-29T08:26:22;98911.00;;;15.90
15626;BMP180;7912;51.376;6.126;2024-03-29T08:28:48;98911.00;;;16.00
15626;BMP180;7912;51.376;6.126;2024-03-29T08:31:15;98911.00;;;16.00
15626;BMP180;7912;51.376;6.126;2024-03-29T08:33:41;98909.00;;;16.10
15626;BMP180;7912;51.376;6.126;2024-03-29T08:36:09;98914.00;;;16.10
15626;BMP180;7912;51.376;6.126;2024-03-29T08:38:40;98923.00;;;16.30
15626;BMP180;7912;51.376;6.126;2024-03-29T08:41:09;98919.00;;;16.30
15626;BMP180;7912;51.376;6.126;2024-03-29T08:43:35;98932.00;;;16.30
15626;BMP180;7912;51.376;6.126;2024-03-29T08:46:02;98923.00;;;16.40
15626;BMP180;7912;51.376;6.126;2024-03-29T08:48:28;98924.00;;;16.40
15626;BMP180;7912;51.376;6.126;2024-03-29T08:50:55;98930.00;;;16.50
15626;BMP180;7912;51.376;6.126;2024-03-29T08:53:24;98913.00;;;16.60
15626;BMP180;7912;51.376;6.126;2024-03-29T08:55:53;98929.00;;;16.80
15626;BMP180;7912;51.376;6.126;2024-03-29T08:58:19;98923.00;;;16.80
15626;BMP180;7912;51.376;6.126;2024-03-29T09:00:56;98940.00;;;17.00
15626;BMP180;7912;51.376;6.126;2024-03-29T09:03:23;98937.00;;;17.00
15626;BMP180;7912;51.376;6.126;2024-03-29T09:05:51;98950.00;;;17.10
15626;BMP180;7912;51.376;6.126;2024-03-29T09:08:18;98950.00;;;17.10
15626;BMP180;7912;51.376;6.126;2024-03-29T09:10:44;98958.00;;;17.10
15626;BMP180;7912;51.376;6.126;2024-03-29T09:13:10;98952.00;;;17.10
15626;BMP180;7912;51.376;6.126;2024-03-29T09:15:37;98954.00;;;17.10
15626;BMP180;7912;51.376;6.126;2024-03-29T09:18:04;98960.00;;;17.20
15626;BMP180;7912;51.376;6.126;2024-03-29T09:20:44;98956.00;;;17.20
15626;BMP180;7912;51.376;6.126;2024-03-29T09:23:11;98953.00;;;17.30
15626;BMP180;7912;51.376;6.126;2024-03-29T09:25:41;98966.00;;;17.40
15626;BMP180;7912;51.376;6.126;2024-03-29T09:28:07;98961.00;;;17.50
15626;BMP180;7912;51.376;6.126;2024-03-29T09:30:36;98954.00;;;17.60
15626;BMP180;7912;51.376;6.126;2024-03-29T09:33:02;98938.00;;;17.70
15626;BMP180;7912;51.376;6.126;2024-03-29T09:35:33;98957.00;;;17.90
15626;BMP180;7912;51.376;6.126;2024-03-29T09:37:59;98957.00;;;18.00
15626;BMP180;7912;51.376;6.126;2024-03-29T09:40:26;98961.00;;;18.20
15626;BMP180;7912;51.376;6.126;2024-03-29T09:43:00;98961.00;;;18.30
15626;BMP180;7912;51.376;6.126;2024-03-29T09:45:34;98980.00;;;18.60
15626;BMP180;7912;51.376;6.126;2024-03-29T09:48:08;98981.00;;;18.90
15626;BMP180;7912;51.376;6.126;2024-03-29T09:50:38;98986.00;;;19.10
15626;BMP180;7912;51.376;6.126;2024-03-29T09:53:08;98991.00;;;19.40
15626;BMP180;7912;51.376;6.126;2024-03-29T09:55:37;98997.00;;;19.50
15626;BMP180;7912;51.376;6.126;2024-03-29T09:58:05;98992.00;;;19.60
15626;BMP180;7912;51.376;6.126;2024-03-29T10:00:31;99001.00;;;19.60
15626;BMP180;7912;51.376;6.126;2024-03-29T10:02:58;99002.00;;;19.50
15626;BMP180;7912;51.376;6.126;2024-03-29T10:05:26;98995.00;;;19.30
15626;BMP180;7912;51.376;6.126;2024-03-29T10:07:54;98996.00;;;19.20
15626;BMP180;7912;51.376;6.126;2024-03-29T10:10:20;99013.00;;;19.10
15626;BMP180;7912;51.376;6.126;2024-03-29T10:12:46;99024.00;;;19.00
15626;BMP180;7912;51.376;6.126;2024-03-29T10:15:13;99015.00;;;19.00
15626;BMP180;7912;51.376;6.126;2024-03-29T10:17:48;99004.00;;;18.90
15626;BMP180;7912;51.376;6.126;2024-03-29T10:20:17;99015.00;;;18.80
15626;BMP180;7912;51.376;6.126;2024-03-29T10:22:45;99007.00;;;18.70
15626;BMP180;7912;51.376;6.126;2024-03-29T10:25:14;99002.00;;;18.70
15626;BMP180;7912;51.376;6.126;2024-03-29T10:27:40;99007.00;;;18.70
15626;BMP180;7912;51.376;6.126;2024-03-29T10:30:08;98999.00;;;18.80
15626;BMP180;7912;51.376;6.126;2024-03-29T10:32:39;99007.00;;;18.80
15626;BMP180;7912;51.376;6.126;2024-03-29T10:35:09;98999.00;;;18.90
15626;BMP180;7912;51.376;6.126;2024-03-29T10:37:36;98994.00;;;19.00
15626;BMP180;7912;51.376;6.126;2024-03-29T10:40:11;99008.00;;;19.10
15626;BMP180;7912;51.376;6.126;2024-03-29T10:42:42;99001.00;;;19.00
15626;BMP180;7912;51.376;6.126;2024-03-29T10:45:10;99006.00;;;19.00
15626;BMP180;7912;51.376;6.126;2024-03-29T10:47:37;99010.00;;;19.10
15626;BMP180;7912;51.376;6.126;2024-03-29T10:50:05;99008.00;;;19.10
15626;BMP180;7912;51.376;6.126;2024-03-29T10:52:32;99009.00;;;19.10
15626;BMP180;7912;51.376;6.126;2024-03-29T10:54:59;99000.00;;;19.30
15626;BMP180;7912;51.376;6.126;2024-03-29T10:57:27;99007.00;;;19.40
15626;BMP180;7912;51.376;6.126;2024-03-29T11:00:03;98998.00;;;19.60
15626;BMP180;7912;51.376;6.126;2024-03-29T11:02:42;99016.00;;;19.70
15626;BMP180;7912;51.376;6.126;2024-03-29T11:05:12;99001.00;;;19.70
15626;BMP180;7912;51.376;6.126;2024-03-29T11:07:42;99005.00;;;19.70
15626;BMP180;7912;51.376;6.126;2024-03-29T11:10:25;99023.00;;;19.60
15626;BMP180;7912;51.376;6.126;2024-03-29T11:13:01;99025.00;;;19.50
15626;BMP180;7912;51.376;6.126;2024-03-29T11:15:31;99011.00;;;19.60
15626;BMP180;7912;51.376;6.126;2024-03-29T11:17:57;99023.00;;;20.00
15626;BMP180;7912;51.376;6.126;2024-03-29T11:20:28;99019.00;;;20.50
15626;BMP180;7912;51.376;6.126;2024-03-29T11:23:09;99019.00;;;21.10
15626;BMP180;7912;51.376;6.126;2024-03-29T11:25:50;99010.00;;;21.70
15626;BMP180;7912;51.376;6.126;2024-03-29T11:28:24;98993.00;;;21.90
15626;BMP180;7912;51.376;6.126;2024-03-29T11:30:53;98989.00;;;21.90
15626;BMP180;7912;51.376;6.126;2024-03-29T11:33:56;98998.00;;;21.70
15626;BMP180;7912;51.376;6.126;2024-03-29T11:36:24;99016.00;;;21.60
15626;BMP180;7912;51.376;6.126;2024-03-29T11:38:52;99019.00;;;21.60
15626;BMP180;7912;51.376;6.126;2024-03-29T11:41:27;99024.00;;;21.40
15626;BMP180;7912;51.376;6.126;2024-03-29T11:43:56;99031.00;;;21.30
15626;BMP180;7912;51.376;6.126;2024-03-29T11:46:24;99037.00;;;21.20
15626;BMP180;7912;51.376;6.126;2024-03-29T11:48:50;99056.00;;;21.00
15626;BMP180;7912;51.376;6.126;2024-03-29T11:51:22;99057.00;;;21.00
15626;BMP180;7912;51.376;6.126;2024-03-29T11:53:50;99075.00;;;20.90
15626;BMP180;7912;51.376;6.126;2024-03-29T11:56:19;99088.00;;;20.90
15626;BMP180;7912;51.376;6.126;2024-03-29T11:58:47;99080.00;;;20.80
15626;BMP180;7912;51.376;6.126;2024-03-29T12:01:16;99073.00;;;20.80
15626;BMP180;7912;51.376;6.126;2024-03-29T12:03:44;99082.00;;;20.70
15626;BMP180;7912;51.376;6.126;2024-03-29T12:06:10;99063.00;;;20.70
15626;BMP180;7912;51.376;6.126;2024-03-29T12:08:39;99079.00;;;20.90
15626;BMP180;7912;51.376;6.126;2024-03-29T12:11:07;99069.00;;;21.00
15626;BMP180;7912;51.376;6.126;2024-03-29T12:13:33;99066.00;;;21.00
15626;BMP180;7912;51.376;6.126;2024-03-29T12:16:01;99072.00;;;21.10
15626;BMP180;7912;51.376;6.126;2024-03-29T12:18:27;99066.00;;;21.10
15626;BMP180;7912;51.376;6.126;2024-03-29T12:20:55;99050.00;;;21.10
15626;BMP180;7912;51.376;6.126;2024-03-29T12:23:22;99059.00;;;21.10
15626;BMP180;7912;51.376;6.126;2024-03-29T12:25:50;99059.00;;;21.10
15626;BMP180;7912;51.376;6.126;2024-03-29T12:28:17;99056.00;;;21.40
15626;BMP180;7912;51.376;6.126;2024-03-29T12:30:47;99072.00;;;21.80
15626;BMP180;7912;51.376;6.126;2024-03-29T12:33:17;99053.00;;;22.20
15626;BMP180;7912;51.376;6.126;2024-03-29T12:35:53;99058.00;;;22.40
15626;BMP180;7912;51.376;6.126;2024-03-29T12:38:21;99060.00;;;22.40
15626;BMP180;7912;51.376;6.126;2024-03-29T12:40:49;99064.00;;;22.40
15626;BMP180;7912;51.376;6.126;2024-03-29T12:43:23;99064.00;;;22.50
15626;BMP180;7912;51.376;6.126;2024-03-29T12:45:51;99072.00;;;22.60
15626;BMP180;7912;51.376;6.126;2024-03-29T12:48:20;99088.00;;;22.80
15626;BMP180;7912;51.376;6.126;2024-03-29T12:50:48;99076.00;;;23.10
15626;BMP180;7912;51.376;6.126;2024-03-29T12:53:16;99078.00;;;23.40
15626;BMP180;7912;51.376;6.126;2024-03-29T12:55:47;99071.00;;;23.70
15626;BMP180;7912;51.376;6.126;2024-03-29T12:58:18;99071.00;;;23.90
15626;BMP180;7912;51.376;6.126;2024-03-29T13:00:51;99050.00;;;24.10
15626;BMP180;7912;51.376;6.126;2024-03-29T13:03:17;99064.00;;;24.40
15626;BMP180;7912;51.376;6.126;2024-03-29T13:05:43;99065.00;;;24.70
15626;BMP180;7912;51.376;6.126;2024-03-29T13:08:14;99062.00;;;25.10
15626;BMP180;7912;51.376;6.126;2024-03-29T13:10:44;99058.00;;;25.30
15626;BMP180;7912;51.376;6.126;2024-03-29T13:13:10;99068.00;;;25.60
15626;BMP180;7912;51.376;6.126;2024-03-29T13:15:39;99066.00;;;25.70
15626;BMP180;7912;51.376;6.126;2024-03-29T13:18:06;99073.00;;;25.90
15626;BMP180;7912;51.376;6.126;2024-03-29T13:20:36;99069.00;;;25.80
15626;BMP180;7912;51.376;6.126;2024-03-29T13:23:06;99078.00;;;25.70
15626;BMP180;7912;51.376;6.126;2024-03-29T13:25:36;99079.00;;;25.70
15626;BMP180;7912;51.376;6.126;2024-03-29T13:28:02;99089.00;;;25.90
15626;BMP180;7912;51.376;6.126;2024-03-29T13:30:31;99086.00;;;26.20
15626;BMP180;7912;51.376;6.126;2024-03-29T13:32:57;99100.00;;;26.40
15626;BMP180;7912;51.376;6.126;2024-03-29T13:35:23;99103.00;;;26.40
15626;BMP180;7912;51.376;6.126;2024-03-29T13:37:51;99107.00;;;26.20
15626;BMP180;7912;51.376;6.126;2024-03-29T13:40:23;99092.00;;;26.10
15626;BMP180;7912;51.376;6.126;2024-03-29T13:42:50;99080.00;;;26.40
15626;BMP180;7912;51.376;6.126;2024-03-29T13:45:17;99074.00;;;26.60
15626;BMP180;7912;51.376;6.126;2024-03-29T13:47:45;99069.00;;;26.80
15626;BMP180;7912;51.376;6.126;2024-03-29T13:50:13;99066.00;;;27.00
15626;BMP180;7912;51.376;6.126;2024-03-29T13:52:42;99066.00;;;27.30
15626;BMP180;7912;51.376;6.126;2024-03-29T13:55:09;99062.00;;;27.50
15626;BMP180;7912;51.376;6.126;2024-03-29T13:57:36;99061.00;;;27.70
15626;BMP180;7912;51.376;6.126;2024-03-29T14:00:03;99069.00;;;27.80
15626;BMP180;7912;51.376;6.126;2024-03-29T14:02:31;99077.00;;;27.80
15626;BMP180;7912;51.376;6.126;2024-03-29T14:04:58;99079.00;;;27.90
15626;BMP180;7912;51.376;6.126;2024-03-29T14:07:25;99072.00;;;27.90
15626;BMP180;7912;51.376;6.126;2024-03-29T14:09:51;99082.00;;;27.90
15626;BMP180;7912;51.376;6.126;2024-03-29T14:12:18;99078.00;;;27.70
15626;BMP180;7912;51.376;6.126;2024-03-29T14:14:48;99064.00;;;27.40
15626;BMP180;7912;51.376;6.126;2024-03-29T14:17:17;99097.00;;;27.20
15626;BMP180;7912;51.376;6.126;2024-03-29T14:19:43;99095.00;;;27.00
15626;BMP180;7912;51.376;6.126;2024-03-29T14:22:10;99101.00;;;26.60
15626;BMP180;7912;51.376;6.126;2024-03-29T14:24:41;99101.00;;;26.30
15626;BMP180;7912;51.376;6.126;2024-03-29T14:27:08;99091.00;;;26.00
15626;BMP180;7912;51.376;6.126;2024-03-29T14:29:35;99102.00;;;25.80
15626;BMP180;7912;51.376;6.126;2024-03-29T14:32:02;99105.00;;;25.60